createdAt,value
2022-11-02T00:00:17.329Z,9.13
2022-11-02T00:05:15.479Z,9.63
2022-11-02T00:10:10.134Z,9.57
2022-11-02T00:15:03.712Z,8.80
2022-11-02T00:19:58.758Z,9.35
2022-11-02T00:25:13.418Z,9.30
2022-11-02T00:30:11.732Z,8.10
2022-11-02T00:35:05.869Z,9.63
2022-11-02T00:40:02.973Z,9.50
2022-11-02T00:44:59.017Z,9.52
2022-11-02T00:49:52.279Z,8.82
2022-11-02T00:54:47.837Z,8.82
2022-11-02T00:59:42.931Z,8.50
2022-11-02T01:04:40.213Z,9.13
2022-11-02T01:09:36.658Z,8.25
2022-11-02T01:14:30.736Z,8.95
2022-11-02T01:19:26.086Z,8.23
2022-11-02T01:24:19.455Z,8.35
2022-11-02T01:29:22.034Z,8.98
2022-11-02T01:34:15.795Z,9.38
2022-11-02T01:39:11.598Z,8.98
2022-11-02T01:44:06.174Z,9.43
2022-11-02T01:49:04.983Z,9.35
2022-11-02T01:54:04.239Z,9.38
2022-11-02T01:59:04.407Z,9.32
2022-11-02T02:03:59.028Z,9.57
2022-11-02T02:08:55.469Z,9.10
2022-11-02T02:13:52.127Z,10.20
2022-11-02T02:18:52.082Z,9.48
2022-11-02T02:24:20.984Z,8.90
2022-11-02T02:29:23.091Z,9.98
2022-11-02T02:34:20.984Z,9.65
2022-11-02T02:39:19.474Z,9.57
2022-11-02T02:44:19.207Z,9.05
2022-11-02T02:49:22.870Z,10.05
2022-11-02T02:54:28.501Z,10.52
2022-11-02T02:59:29.322Z,10.13
2022-11-02T03:04:29.188Z,10.07
2022-11-02T03:09:34.501Z,10.10
2022-11-02T03:14:44.192Z,10.20
2022-11-02T03:20:15.936Z,10.02
2022-11-02T03:25:28.612Z,11.35
2022-11-02T03:30:26.146Z,11.10
2022-11-02T03:35:29.898Z,11.75
2022-11-02T03:40:39.445Z,10.73
2022-11-02T03:45:47.600Z,11.07
2022-11-02T03:50:51.426Z,10.77
2022-11-02T03:55:59.763Z,11.35
2022-11-02T04:00:58.278Z,9.60
2022-11-02T04:05:52.409Z,9.23
2022-11-02T04:11:13.297Z,10.25
2022-11-02T04:16:12.306Z,9.88
2022-11-02T04:21:07.467Z,10.48
2022-11-02T04:26:32.692Z,10.60
2022-11-02T04:31:32.446Z,11.82
2022-11-02T04:36:26.579Z,10.90
2022-11-02T04:41:42.044Z,10.15
2022-11-02T04:46:52.924Z,11.77
2022-11-02T04:51:52.519Z,10.50
2022-11-02T04:56:51.571Z,11.02
2022-11-02T05:01:50.818Z,10.43
2022-11-02T05:06:44.988Z,9.98
2022-11-02T05:11:40.314Z,10.35
2022-11-02T05:16:44.060Z,13.38
2022-11-02T05:21:41.382Z,19.00
2022-11-02T05:26:35.352Z,12.27
2022-11-02T05:31:30.593Z,11.50
2022-11-02T05:36:30.732Z,13.20
2022-11-02T05:41:26.692Z,14.35
2022-11-02T05:46:29.538Z,12.48
2022-11-02T05:51:32.155Z,10.85
2022-11-02T06:01:59.145Z,11.27
2022-11-02T06:07:03.775Z,12.23
2022-11-02T06:12:09.039Z,12.13
2022-11-02T06:17:18.495Z,12.18
2022-11-02T06:22:12.230Z,10.82
2022-11-02T06:33:07.002Z,8.82
2022-11-02T06:38:27.183Z,9.45
2022-11-02T06:43:37.998Z,10.10
2022-11-02T06:48:43.927Z,9.88
2022-11-02T06:53:49.156Z,9.27
2022-11-02T06:59:05.294Z,9.63
2022-11-02T07:04:13.343Z,9.30
2022-11-02T07:09:27.049Z,8.20
2022-11-02T07:14:35.792Z,8.95
2022-11-02T07:19:37.563Z,8.77
2022-11-02T07:24:33.249Z,8.68
2022-11-02T07:29:38.485Z,8.02
2022-11-02T07:34:46.919Z,9.00
2022-11-02T07:40:11.430Z,9.20
2022-11-02T07:45:15.716Z,9.50
2022-11-02T07:50:18.230Z,8.93
2022-11-02T07:55:29.027Z,10.10
2022-11-02T08:06:47.337Z,11.50
2022-11-02T08:19:33.615Z,10.98
2022-11-02T08:36:54.714Z,13.45
2022-11-02T08:41:56.749Z,13.18
2022-11-02T08:48:05.635Z,14.75
2022-11-02T08:54:13.211Z,14.48
2022-11-02T08:59:20.229Z,13.45
2022-11-02T09:04:45.461Z,13.77
2022-11-02T09:16:13.599Z,12.13
2022-11-02T09:21:56.130Z,11.07
2022-11-02T09:27:56.814Z,10.35
2022-11-02T09:33:20.419Z,10.85
2022-11-02T09:38:52.627Z,10.52
2022-11-02T09:44:34.961Z,11.13
2022-11-02T09:49:59.521Z,10.85
2022-11-02T10:01:27.585Z,11.52
2022-11-02T10:14:27.664Z,10.85
2022-11-02T10:20:29.062Z,9.70
2022-11-02T10:32:53.931Z,9.80
2022-11-02T10:38:45.769Z,9.20
2022-11-02T10:51:26.401Z,10.18
2022-11-02T10:57:26.834Z,10.63
2022-11-02T11:02:28.742Z,11.93
2022-11-02T11:20:13.610Z,13.32
2022-11-02T11:26:15.209Z,12.75
2022-11-02T11:32:34.584Z,11.00
2022-11-02T11:38:07.286Z,11.70
2022-11-02T11:54:36.426Z,9.48
2022-11-02T12:16:28.419Z,8.90
2022-11-02T12:19:05.131Z,9.43
2022-11-02T12:25:04.952Z,9.10
2022-11-02T12:30:40.169Z,8.90
2022-11-02T12:36:14.549Z,8.02
2022-11-02T12:42:13.342Z,7.40
2022-11-02T12:48:11.260Z,9.07
2022-11-02T12:59:57.420Z,8.43
2022-11-02T13:06:02.454Z,8.55
2022-11-02T13:18:20.787Z,7.82
2022-11-02T13:36:02.873Z,7.72
2022-11-02T13:41:40.196Z,9.55
2022-11-02T15:21:37.513Z,8.82
2022-11-02T15:33:32.922Z,7.03
2022-11-02T15:45:59.376Z,6.57
2022-11-02T15:52:13.951Z,6.90
2022-11-02T16:04:18.963Z,8.18
2022-11-02T16:10:00.838Z,9.43
2022-11-02T16:35:22.874Z,9.10
2022-11-02T16:47:11.166Z,9.40
2022-11-02T16:52:50.316Z,9.20
2022-11-02T16:58:08.331Z,8.57
2022-11-02T17:03:43.283Z,9.30
2022-11-02T17:08:51.123Z,10.57
2022-11-02T17:14:32.147Z,8.68
2022-11-02T18:13:40.316Z,7.38
2022-11-02T18:19:09.051Z,6.93
2022-11-02T18:24:30.355Z,7.55
2022-11-02T18:29:24.189Z,8.77
2022-11-02T18:34:26.459Z,11.23
2022-11-02T18:39:24.712Z,9.50
2022-11-02T18:50:28.384Z,7.03
2022-11-02T18:55:24.526Z,10.70
2022-11-02T19:05:59.726Z,8.40
2022-11-02T19:11:02.093Z,10.80
2022-11-02T19:16:01.016Z,11.57
2022-11-02T19:20:55.825Z,8.80
2022-11-02T19:26:07.029Z,7.97
2022-11-02T19:31:00.504Z,9.23
2022-11-02T19:36:03.416Z,8.98
2022-11-02T19:41:13.697Z,6.78
2022-11-02T19:46:10.452Z,8.18
2022-11-02T19:51:13.460Z,8.00
2022-11-02T19:56:20.246Z,8.30
2022-11-02T20:01:20.235Z,7.40
2022-11-02T20:11:21.087Z,6.65
2022-11-02T20:16:18.468Z,8.70
2022-11-02T20:21:15.740Z,8.05
2022-11-02T20:26:14.610Z,8.93
2022-11-02T20:31:09.747Z,8.88
2022-11-02T20:36:04.234Z,9.55
2022-11-02T20:41:09.712Z,8.85
2022-11-02T20:46:53.456Z,9.77
2022-11-02T20:51:53.407Z,9.30
2022-11-02T20:56:50.985Z,9.05
2022-11-02T21:01:44.789Z,8.82
2022-11-02T21:06:40.297Z,8.77
2022-11-02T21:11:51.176Z,9.20
2022-11-02T21:16:46.107Z,8.82
2022-11-02T21:28:25.262Z,9.68
2022-11-02T21:53:09.007Z,12.25
2022-11-02T23:02:04.549Z,10.95
2022-11-02T23:02:12.946Z,9.70
2022-11-02T23:13:35.631Z,9.55
2022-11-02T23:25:00.395Z,9.48
2022-11-02T23:44:25.663Z,10.52
2022-11-02T23:50:12.032Z,11.48
